Time,TemperatureF,DewpointF,PressureIn,WindDirection,WindDirectionDegrees,WindSpeedMPH,WindSpeedGustMPH,Humidity,HourlyPrecipIn,Conditions,Clouds,dailyrainin,SoftwareType,DateUTC
2013-05-21 00:01:00,60.0,31.0,-100.00,WSW,239,5.0,6.0,33,-99.99,,,-99.99,,2013-05-21 07:01:00,
2013-05-21 00:11:00,60.0,31.0,-100.00,WSW,239,5.0,6.0,33,-99.99,,,-99.99,,2013-05-21 07:11:00,
2013-05-21 02:01:00,60.0,36.0,-100.00,West,281,5.0,6.0,40,-99.99,,,-99.99,,2013-05-21 09:01:00,
2013-05-21 02:11:00,60.0,36.0,-100.00,West,281,5.0,6.0,40,-99.99,,,-99.99,,2013-05-21 09:11:00,
2013-05-21 02:53:00,61.0,41.0,-100.00,West,271,7.0,9.0,47,-99.99,,,-99.99,,2013-05-21 09:53:00,
2013-05-21 03:02:00,61.0,41.0,-100.00,West,271,7.0,9.0,47,-99.99,,,-99.99,,2013-05-21 10:02:00,
2013-05-21 03:12:00,61.0,41.0,-100.00,West,271,7.0,9.0,47,-99.99,,,-99.99,,2013-05-21 10:12:00,
2013-05-21 04:02:00,60.0,41.0,-100.00,West,275,5.0,7.0,49,-99.99,,,-99.99,,2013-05-21 11:02:00,
2013-05-21 04:11:00,60.0,41.0,-100.00,West,275,5.0,7.0,49,-99.99,,,-99.99,,2013-05-21 11:11:00,
2013-05-21 05:01:00,57.0,38.0,-100.00,SW,221,6.0,7.0,48,-99.99,,,-99.99,,2013-05-21 12:01:00,
2013-05-21 05:11:00,57.0,38.0,-100.00,SW,221,6.0,7.0,48,-99.99,,,-99.99,,2013-05-21 12:11:00,
2013-05-21 06:01:00,60.0,34.0,-100.00,West,259,9.0,15.0,37,-99.99,,,-99.99,,2013-05-21 13:01:00,
2013-05-21 06:11:00,60.0,34.0,-100.00,West,259,9.0,15.0,37,-99.99,,,-99.99,,2013-05-21 13:11:00,
2013-05-21 07:01:00,57.0,42.0,-100.00,WNW,302,5.0,7.0,57,-99.99,,,-99.99,,2013-05-21 14:01:00,
2013-05-21 07:11:00,57.0,42.0,-100.00,WNW,302,5.0,7.0,57,-99.99,,,-99.99,,2013-05-21 14:11:00,
2013-05-21 10:02:00,67.0,43.0,-100.00,WSW,244,14.0,21.0,41,-99.99,,,-99.99,,2013-05-21 17:02:00,
2013-05-21 10:12:00,67.0,43.0,-100.00,WSW,244,14.0,21.0,41,-99.99,,,-99.99,,2013-05-21 17:12:00,
2013-05-21 10:52:00,66.0,44.0,-100.00,WSW,243,13.0,21.0,44,-99.99,,,-99.99,,2013-05-21 17:52:00,
2013-05-21 11:01:00,66.0,44.0,-100.00,WSW,243,13.0,21.0,44,-99.99,,,-99.99,,2013-05-21 18:01:00,
2013-05-21 11:11:00,66.0,44.0,-100.00,WSW,243,13.0,21.0,44,-99.99,,,-99.99,,2013-05-21 18:11:00,
2013-05-21 12:01:00,56.0,50.0,-100.00,WSW,256,9.0,13.0,80,-99.99,,,-99.99,,2013-05-21 19:01:00,
2013-05-21 12:11:00,56.0,50.0,-100.00,WSW,256,9.0,13.0,80,-99.99,,,-99.99,,2013-05-21 19:11:00,
2013-05-21 13:03:00,52.0,49.0,-100.00,West,267,12.0,20.0,89,-99.99,,,-99.99,,2013-05-21 20:03:00,
2013-05-21 13:11:00,52.0,49.0,-100.00,West,267,12.0,20.0,89,-99.99,,,-99.99,,2013-05-21 20:11:00,
2013-05-21 13:52:00,52.0,50.0,-100.00,West,270,5.0,9.0,92,-99.99,,,-99.99,,2013-05-21 20:52:00,
2013-05-21 14:02:00,52.0,50.0,-100.00,West,270,5.0,9.0,92,-99.99,,,-99.99,,2013-05-21 21:02:00,
2013-05-21 14:11:00,52.0,50.0,-100.00,West,270,5.0,9.0,92,-99.99,,,-99.99,,2013-05-21 21:11:00,
2013-05-21 15:02:00,53.0,51.0,-100.00,East,84,5.0,8.0,92,-99.99,,,-99.99,,2013-05-21 22:02:00,
2013-05-21 15:12:00,53.0,51.0,-100.00,East,84,5.0,8.0,92,-99.99,,,-99.99,,2013-05-21 22:12:00,
2013-05-21 16:02:00,58.0,51.0,-100.00,ESE,106,6.0,12.0,77,-99.99,,,-99.99,,2013-05-21 23:02:00,
2013-05-21 16:12:00,58.0,51.0,-100.00,ESE,106,6.0,12.0,77,-99.99,,,-99.99,,2013-05-21 23:12:00,
2013-05-21 17:01:00,62.0,50.0,-100.00,East,101,9.0,17.0,64,-99.99,,,-99.99,,2013-05-22 00:01:00,
2013-05-21 17:11:00,62.0,50.0,-100.00,East,101,9.0,17.0,64,-99.99,,,-99.99,,2013-05-22 00:11:00,
2013-05-21 17:52:00,57.0,49.0,-100.00,NE,43,10.0,14.0,74,-99.99,,,-99.99,,2013-05-22 00:52:00,
2013-05-21 18:01:00,57.0,49.0,-100.00,NE,43,10.0,14.0,74,-99.99,,,-99.99,,2013-05-22 01:01:00,
2013-05-21 18:11:00,57.0,49.0,-100.00,NE,43,10.0,14.0,74,-99.99,,,-99.99,,2013-05-22 01:11:00,
2013-05-21 18:52:00,55.0,52.0,-100.00,NNE,29,8.0,10.0,89,-99.99,,,-99.99,,2013-05-22 01:52:00,
2013-05-21 19:01:00,55.0,52.0,-100.00,NNE,29,8.0,10.0,89,-99.99,,,-99.99,,2013-05-22 02:01:00,
2013-05-21 19:11:00,55.0,52.0,-100.00,NNE,29,8.0,10.0,89,-99.99,,,-99.99,,2013-05-22 02:11:00,
2013-05-21 20:01:00,54.0,49.0,-100.00,ENE,74,8.0,12.0,83,-99.99,,,-99.99,,2013-05-22 03:01:00,
2013-05-21 20:11:00,54.0,49.0,-100.00,ENE,74,8.0,12.0,83,-99.99,,,-99.99,,2013-05-22 03:11:00,
2013-05-21 20:53:00,53.0,48.0,-100.00,ESE,103,6.0,8.0,83,-99.99,,,-99.99,,2013-05-22 03:53:00,
2013-05-21 21:03:00,53.0,48.0,-100.00,ESE,103,6.0,8.0,83,-99.99,,,-99.99,,2013-05-22 04:03:00,
2013-05-21 21:12:00,53.0,48.0,-100.00,ESE,103,6.0,8.0,83,-99.99,,,-99.99,,2013-05-22 04:12:00,
2013-05-21 22:02:00,53.0,47.0,-100.00,WSW,256,6.0,7.0,79,-99.99,,,-99.99,,2013-05-22 05:02:00,
2013-05-21 22:11:00,53.0,47.0,-100.00,WSW,256,6.0,7.0,79,-99.99,,,-99.99,,2013-05-22 05:11:00,
2013-05-21 22:52:00,50.0,44.0,-100.00,WSW,255,16.0,22.0,79,-99.99,,,-99.99,,2013-05-22 05:52:00,
2013-05-21 23:01:00,50.0,44.0,-100.00,WSW,255,16.0,22.0,79,-99.99,,,-99.99,,2013-05-22 06:01:00,
2013-05-21 23:11:00,50.0,44.0,-100.00,WSW,255,16.0,22.0,79,-99.99,,,-99.99,,2013-05-22 06:11:00,
2013-05-21 23:52:00,48.0,45.0,-100.00,West,259,13.0,17.0,89,-99.99,,,-99.99,,2013-05-22 06:52:00,